sensor_id;sensor_type;location;lat;lon;timestamp;P1;durP1;ratioP1;P2;durP2;ratioP2
59338;SDS011;45117;50.960;5.500;2023-03-19T00:01:11;6.85;;;4.00;;
59338;SDS011;45117;50.960;5.500;2023-03-19T00:03:38;8.73;;;4.95;;
59338;SDS011;45117;50.960;5.500;2023-03-19T00:06:04;7.57;;;5.18;;
59338;SDS011;45117;50.960;5.500;2023-03-19T00:08:31;6.78;;;4.25;;
59338;SDS011;45117;50.960;5.500;2023-03-19T00:10:58;7.88;;;4.80;;
59338;SDS011;45117;50.960;5.500;2023-03-19T00:13:26;7.13;;;4.05;;
59338;SDS011;45117;50.960;5.500;2023-03-19T00:15:52;7.57;;;4.65;;
59338;SDS011;45117;50.960;5.500;2023-03-19T00:18:19;7.47;;;4.20;;
59338;SDS011;45117;50.960;5.500;2023-03-19T00:20:45;10.50;;;4.35;;
59338;SDS011;45117;50.960;5.500;2023-03-19T00:23:12;9.70;;;4.57;;
59338;SDS011;45117;50.960;5.500;2023-03-19T00:25:39;6.55;;;4.28;;
59338;SDS011;45117;50.960;5.500;2023-03-19T00:28:06;8.38;;;4.38;;
59338;SDS011;45117;50.960;5.500;2023-03-19T00:30:34;6.90;;;4.25;;
59338;SDS011;45117;50.960;5.500;2023-03-19T00:33:01;9.20;;;5.00;;
59338;SDS011;45117;50.960;5.500;2023-03-19T00:35:27;6.00;;;4.50;;
59338;SDS011;45117;50.960;5.500;2023-03-19T00:37:54;8.10;;;4.20;;
59338;SDS011;45117;50.960;5.500;2023-03-19T00:40:20;7.55;;;3.92;;
59338;SDS011;45117;50.960;5.500;2023-03-19T00:42:47;6.75;;;3.70;;
59338;SDS011;45117;50.960;5.500;2023-03-19T00:45:13;5.95;;;3.60;;
59338;SDS011;45117;50.960;5.500;2023-03-19T00:47:41;8.15;;;4.47;;
59338;SDS011;45117;50.960;5.500;2023-03-19T00:50:08;7.88;;;3.40;;
59338;SDS011;45117;50.960;5.500;2023-03-19T00:52:36;4.80;;;3.03;;
59338;SDS011;45117;50.960;5.500;2023-03-19T00:55:02;6.05;;;3.58;;
59338;SDS011;45117;50.960;5.500;2023-03-19T00:57:29;4.78;;;3.25;;
59338;SDS011;45117;50.960;5.500;2023-03-19T00:59:56;6.25;;;4.15;;
59338;SDS011;45117;50.960;5.500;2023-03-19T01:02:22;8.13;;;3.90;;
59338;SDS011;45117;50.960;5.500;2023-03-19T01:04:50;6.55;;;3.85;;
59338;SDS011;45117;50.960;5.500;2023-03-19T01:07:17;8.90;;;4.50;;
59338;SDS011;45117;50.960;5.500;2023-03-19T01:09:43;7.32;;;4.78;;
59338;SDS011;45117;50.960;5.500;2023-03-19T01:12:10;6.35;;;4.60;;
59338;SDS011;45117;50.960;5.500;2023-03-19T01:14:36;8.23;;;4.80;;
59338;SDS011;45117;50.960;5.500;2023-03-19T01:17:03;8.75;;;4.82;;
59338;SDS011;45117;50.960;5.500;2023-03-19T01:19:29;7.10;;;4.80;;
59338;SDS011;45117;50.960;5.500;2023-03-19T01:21:57;7.72;;;4.40;;
59338;SDS011;45117;50.960;5.500;2023-03-19T01:24:27;7.45;;;4.32;;
59338;SDS011;45117;50.960;5.500;2023-03-19T01:26:54;5.22;;;3.90;;
59338;SDS011;45117;50.960;5.500;2023-03-19T01:29:20;6.82;;;4.38;;
59338;SDS011;45117;50.960;5.500;2023-03-19T01:31:47;9.70;;;4.03;;
59338;SDS011;45117;50.960;5.500;2023-03-19T01:34:13;5.05;;;3.53;;
59338;SDS011;45117;50.960;5.500;2023-03-19T01:36:40;7.10;;;3.65;;
59338;SDS011;45117;50.960;5.500;2023-03-19T01:39:08;5.55;;;3.13;;
59338;SDS011;45117;50.960;5.500;2023-03-19T01:41:35;7.53;;;3.58;;
59338;SDS011;45117;50.960;5.500;2023-03-19T01:44:02;7.43;;;3.80;;
59338;SDS011;45117;50.960;5.500;2023-03-19T01:46:29;5.85;;;4.00;;
59338;SDS011;45117;50.960;5.500;2023-03-19T01:48:57;5.53;;;3.95;;
59338;SDS011;45117;50.960;5.500;2023-03-19T01:51:26;5.45;;;3.90;;
59338;SDS011;45117;50.960;5.500;2023-03-19T01:53:56;5.97;;;4.32;;
59338;SDS011;45117;50.960;5.500;2023-03-19T01:56:27;7.10;;;4.47;;
59338;SDS011;45117;50.960;5.500;2023-03-19T01:58:57;7.22;;;4.03;;
59338;SDS011;45117;50.960;5.500;2023-03-19T02:01:28;7.72;;;4.25;;
59338;SDS011;45117;50.960;5.500;2023-03-19T02:04:00;6.05;;;4.18;;
59338;SDS011;45117;50.960;5.500;2023-03-19T02:06:27;7.43;;;4.20;;
59338;SDS011;45117;50.960;5.500;2023-03-19T02:08:54;6.43;;;4.03;;
59338;SDS011;45117;50.960;5.500;2023-03-19T02:11:22;5.88;;;4.07;;
59338;SDS011;45117;50.960;5.500;2023-03-19T02:13:51;6.57;;;4.18;;
59338;SDS011;45117;50.960;5.500;2023-03-19T02:16:17;6.55;;;4.20;;
59338;SDS011;45117;50.960;5.500;2023-03-19T02:18:44;9.43;;;4.60;;
59338;SDS011;45117;50.960;5.500;2023-03-19T02:21:12;7.03;;;4.50;;
59338;SDS011;45117;50.960;5.500;2023-03-19T02:23:42;6.82;;;3.92;;
59338;SDS011;45117;50.960;5.500;2023-03-19T02:26:14;6.60;;;4.60;;
59338;SDS011;45117;50.960;5.500;2023-03-19T02:28:44;7.05;;;4.07;;
59338;SDS011;45117;50.960;5.500;2023-03-19T02:31:13;7.05;;;3.70;;
59338;SDS011;45117;50.960;5.500;2023-03-19T02:33:40;5.65;;;3.28;;
59338;SDS011;45117;50.960;5.500;2023-03-19T02:36:09;6.05;;;3.53;;
59338;SDS011;45117;50.960;5.500;2023-03-19T02:38:39;7.93;;;3.67;;
59338;SDS011;45117;50.960;5.500;2023-03-19T02:41:08;5.18;;;3.22;;
59338;SDS011;45117;50.960;5.500;2023-03-19T02:43:38;6.60;;;3.88;;
59338;SDS011;45117;50.960;5.500;2023-03-19T02:46:06;5.38;;;3.40;;
59338;SDS011;45117;50.960;5.500;2023-03-19T02:48:34;7.53;;;3.70;;
59338;SDS011;45117;50.960;5.500;2023-03-19T02:51:01;5.03;;;3.60;;
59338;SDS011;45117;50.960;5.500;2023-03-19T02:53:28;6.95;;;3.90;;
59338;SDS011;45117;50.960;5.500;2023-03-19T02:55:54;5.30;;;3.65;;
59338;SDS011;45117;50.960;5.500;2023-03-19T02:58:21;7.28;;;4.35;;
59338;SDS011;45117;50.960;5.500;2023-03-19T03:00:49;6.00;;;3.60;;
59338;SDS011;45117;50.960;5.500;2023-03-19T03:03:16;7.47;;;4.10;;
59338;SDS011;45117;50.960;5.500;2023-03-19T03:05:43;4.65;;;3.47;;
59338;SDS011;45117;50.960;5.500;2023-03-19T03:08:09;5.53;;;3.40;;
59338;SDS011;45117;50.960;5.500;2023-03-19T03:10:36;6.20;;;4.40;;
59338;SDS011;45117;50.960;5.500;2023-03-19T03:13:02;6.65;;;3.45;;
59338;SDS011;45117;50.960;5.500;2023-03-19T03:15:30;8.43;;;3.83;;
59338;SDS011;45117;50.960;5.500;2023-03-19T03:17:58;6.10;;;4.07;;
59338;SDS011;45117;50.960;5.500;2023-03-19T03:20:25;5.45;;;3.58;;
59338;SDS011;45117;50.960;5.500;2023-03-19T03:22:51;7.28;;;4.40;;
59338;SDS011;45117;50.960;5.500;2023-03-19T03:25:18;6.72;;;4.30;;
59338;SDS011;45117;50.960;5.500;2023-03-19T03:27:45;6.55;;;4.22;;
59338;SDS011;45117;50.960;5.500;2023-03-19T03:30:12;5.90;;;4.40;;
59338;SDS011;45117;50.960;5.500;2023-03-19T03:32:40;6.70;;;4.40;;
59338;SDS011;45117;50.960;5.500;2023-03-19T03:35:08;8.13;;;4.70;;
59338;SDS011;45117;50.960;5.500;2023-03-19T03:37:35;7.10;;;4.93;;
59338;SDS011;45117;50.960;5.500;2023-03-19T03:40:02;7.20;;;5.07;;
59338;SDS011;45117;50.960;5.500;2023-03-19T03:42:32;7.80;;;5.18;;
59338;SDS011;45117;50.960;5.500;2023-03-19T03:44:58;7.28;;;5.03;;
59338;SDS011;45117;50.960;5.500;2023-03-19T03:47:25;8.60;;;6.10;;
59338;SDS011;45117;50.960;5.500;2023-03-19T03:49:52;13.05;;;7.13;;
59338;SDS011;45117;50.960;5.500;2023-03-19T03:52:19;11.27;;;7.43;;
59338;SDS011;45117;50.960;5.500;2023-03-19T03:54:46;11.52;;;8.15;;
59338;SDS011;45117;50.960;5.500;2023-03-19T03:57:13;12.45;;;8.60;;
59338;SDS011;45117;50.960;5.500;2023-03-19T03:59:39;12.32;;;7.40;;
59338;SDS011;45117;50.960;5.500;2023-03-19T04:02:06;13.93;;;7.95;;
59338;SDS011;45117;50.960;5.500;2023-03-19T04:04:33;10.85;;;7.40;;
59338;SDS011;45117;50.960;5.500;2023-03-19T04:07:00;9.63;;;6.13;;
59338;SDS011;45117;50.960;5.500;2023-03-19T04:09:27;11.75;;;6.82;;
59338;SDS011;45117;50.960;5.500;2023-03-19T04:11:55;9.98;;;6.78;;
59338;SDS011;45117;50.960;5.500;2023-03-19T04:14:21;9.65;;;6.60;;
59338;SDS011;45117;50.960;5.500;2023-03-19T04:16:48;11.18;;;6.88;;
59338;SDS011;45117;50.960;5.500;2023-03-19T04:19:15;9.60;;;6.15;;
59338;SDS011;45117;50.960;5.500;2023-03-19T04:21:41;11.82;;;7.78;;
59338;SDS011;45117;50.960;5.500;2023-03-19T04:24:08;10.40;;;7.63;;
59338;SDS011;45117;50.960;5.500;2023-03-19T04:26:37;10.85;;;7.95;;
59338;SDS011;45117;50.960;5.500;2023-03-19T04:29:04;10.02;;;7.05;;
59338;SDS011;45117;50.960;5.500;2023-03-19T04:31:32;12.43;;;7.65;;
59338;SDS011;45117;50.960;5.500;2023-03-19T04:33:58;11.65;;;7.22;;
59338;SDS011;45117;50.960;5.500;2023-03-19T04:36:25;11.45;;;7.93;;
59338;SDS011;45117;50.960;5.500;2023-03-19T04:38:52;12.23;;;7.95;;
59338;SDS011;45117;50.960;5.500;2023-03-19T04:41:18;11.60;;;7.70;;
59338;SDS011;45117;50.960;5.500;2023-03-19T04:43:46;12.38;;;7.90;;
59338;SDS011;45117;50.960;5.500;2023-03-19T04:46:12;12.20;;;7.82;;
59338;SDS011;45117;50.960;5.500;2023-03-19T04:48:39;14.18;;;8.30;;
59338;SDS011;45117;50.960;5.500;2023-03-19T04:51:06;12.35;;;8.13;;
59338;SDS011;45117;50.960;5.500;2023-03-19T04:53:33;12.38;;;7.72;;
59338;SDS011;45117;50.960;5.500;2023-03-19T04:56:00;12.02;;;8.20;;
59338;SDS011;45117;50.960;5.500;2023-03-19T04:58:26;14.80;;;8.40;;
59338;SDS011;45117;50.960;5.500;2023-03-19T05:00:54;12.60;;;8.07;;
59338;SDS011;45117;50.960;5.500;2023-03-19T05:03:21;12.85;;;8.30;;
59338;SDS011;45117;50.960;5.500;2023-03-19T05:05:48;13.57;;;9.27;;
59338;SDS011;45117;50.960;5.500;2023-03-19T05:08:14;15.05;;;9.02;;
59338;SDS011;45117;50.960;5.500;2023-03-19T05:10:41;12.02;;;8.38;;
59338;SDS011;45117;50.960;5.500;2023-03-19T05:13:07;15.32;;;10.27;;
59338;SDS011;45117;50.960;5.500;2023-03-19T05:15:34;16.63;;;9.88;;
59338;SDS011;45117;50.960;5.500;2023-03-19T05:18:02;15.50;;;9.25;;
59338;SDS011;45117;50.960;5.500;2023-03-19T05:20:28;14.57;;;9.63;;
59338;SDS011;45117;50.960;5.500;2023-03-19T05:22:55;13.52;;;9.20;;
59338;SDS011;45117;50.960;5.500;2023-03-19T05:25:21;14.68;;;8.82;;
59338;SDS011;45117;50.960;5.500;2023-03-19T05:27:48;12.00;;;8.73;;
59338;SDS011;45117;50.960;5.500;2023-03-19T05:30:14;13.98;;;9.18;;
59338;SDS011;45117;50.960;5.500;2023-03-19T05:32:42;14.90;;;10.73;;
59338;SDS011;45117;50.960;5.500;2023-03-19T05:35:12;15.88;;;11.20;;
59338;SDS011;45117;50.960;5.500;2023-03-19T05:37:39;16.70;;;11.35;;
59338;SDS011;45117;50.960;5.500;2023-03-19T05:40:05;15.95;;;11.02;;
59338;SDS011;45117;50.960;5.500;2023-03-19T05:42:32;17.35;;;11.68;;
59338;SDS011;45117;50.960;5.500;2023-03-19T05:44:59;15.55;;;10.70;;
59338;SDS011;45117;50.960;5.500;2023-03-19T05:47:26;16.95;;;11.13;;
59338;SDS011;45117;50.960;5.500;2023-03-19T05:49:53;13.85;;;9.80;;
59338;SDS011;45117;50.960;5.500;2023-03-19T05:52:20;13.40;;;9.80;;
59338;SDS011;45117;50.960;5.500;2023-03-19T05:54:47;13.30;;;9.18;;
59338;SDS011;45117;50.960;5.500;2023-03-19T05:57:14;12.75;;;9.13;;
59338;SDS011;45117;50.960;5.500;2023-03-19T05:59:41;13.45;;;9.15;;
59338;SDS011;45117;50.960;5.500;2023-03-19T06:02:08;13.18;;;9.20;;
59338;SDS011;45117;50.960;5.500;2023-03-19T06:04:35;13.98;;;9.90;;
59338;SDS011;45117;50.960;5.500;2023-03-19T06:07:01;14.70;;;9.65;;
59338;SDS011;45117;50.960;5.500;2023-03-19T06:09:29;15.07;;;9.77;;
59338;SDS011;45117;50.960;5.500;2023-03-19T06:11:56;16.45;;;10.40;;
59338;SDS011;45117;50.960;5.500;2023-03-19T06:14:22;15.85;;;10.05;;
59338;SDS011;45117;50.960;5.500;2023-03-19T06:16:49;16.08;;;10.30;;
59338;SDS011;45117;50.960;5.500;2023-03-19T06:19:16;16.90;;;11.02;;
59338;SDS011;45117;50.960;5.500;2023-03-19T06:21:42;16.33;;;11.02;;
59338;SDS011;45117;50.960;5.500;2023-03-19T06:24:09;17.50;;;10.70;;
59338;SDS011;45117;50.960;5.500;2023-03-19T06:26:37;17.58;;;10.93;;
59338;SDS011;45117;50.960;5.500;2023-03-19T06:29:03;16.92;;;11.85;;
59338;SDS011;45117;50.960;5.500;2023-03-19T06:31:30;17.52;;;12.02;;
59338;SDS011;45117;50.960;5.500;2023-03-19T06:33:57;15.50;;;9.55;;
59338;SDS011;45117;50.960;5.500;2023-03-19T06:36:23;16.55;;;11.30;;
59338;SDS011;45117;50.960;5.500;2023-03-19T06:38:50;17.85;;;12.32;;
59338;SDS011;45117;50.960;5.500;2023-03-19T06:41:16;17.88;;;12.38;;
59338;SDS011;45117;50.960;5.500;2023-03-19T06:43:44;17.02;;;11.50;;
59338;SDS011;45117;50.960;5.500;2023-03-19T06:46:11;16.95;;;11.70;;
59338;SDS011;45117;50.960;5.500;2023-03-19T06:48:38;18.30;;;11.68;;
59338;SDS011;45117;50.960;5.500;2023-03-19T06:51:05;18.02;;;11.98;;
59338;SDS011;45117;50.960;5.500;2023-03-19T06:53:31;17.88;;;11.20;;
59338;SDS011;45117;50.960;5.500;2023-03-19T06:55:58;17.30;;;11.68;;
59338;SDS011;45117;50.960;5.500;2023-03-19T06:58:25;20.10;;;11.68;;
59338;SDS011;45117;50.960;5.500;2023-03-19T07:00:53;19.95;;;11.68;;
59338;SDS011;45117;50.960;5.500;2023-03-19T07:03:20;19.90;;;13.38;;
59338;SDS011;45117;50.960;5.500;2023-03-19T07:05:47;15.10;;;10.60;;
59338;SDS011;45117;50.960;5.500;2023-03-19T07:08:15;17.35;;;11.80;;
59338;SDS011;45117;50.960;5.500;2023-03-19T07:10:41;16.00;;;10.55;;
59338;SDS011;45117;50.960;5.500;2023-03-19T07:13:08;21.30;;;14.20;;
59338;SDS011;45117;50.960;5.500;2023-03-19T07:15:34;21.73;;;14.60;;
59338;SDS011;45117;50.960;5.500;2023-03-19T07:18:02;21.10;;;14.38;;
59338;SDS011;45117;50.960;5.500;2023-03-19T07:20:29;20.75;;;13.75;;
59338;SDS011;45117;50.960;5.500;2023-03-19T07:22:56;17.27;;;11.07;;
59338;SDS011;45117;50.960;5.500;2023-03-19T07:25:22;17.30;;;11.23;;
59338;SDS011;45117;50.960;5.500;2023-03-19T07:27:50;15.93;;;11.07;;
59338;SDS011;45117;50.960;5.500;2023-03-19T07:30:16;15.77;;;11.13;;
59338;SDS011;45117;50.960;5.500;2023-03-19T07:32:43;19.55;;;11.35;;
59338;SDS011;45117;50.960;5.500;2023-03-19T07:35:11;17.00;;;11.02;;
59338;SDS011;45117;50.960;5.500;2023-03-19T07:37:38;17.08;;;10.43;;
59338;SDS011;45117;50.960;5.500;2023-03-19T07:40:05;18.10;;;10.90;;
59338;SDS011;45117;50.960;5.500;2023-03-19T07:42:33;17.92;;;10.88;;
59338;SDS011;45117;50.960;5.500;2023-03-19T07:45:00;16.75;;;10.40;;
59338;SDS011;45117;50.960;5.500;2023-03-19T07:47:28;14.82;;;10.73;;
59338;SDS011;45117;50.960;5.500;2023-03-19T07:49:55;15.02;;;10.48;;
59338;SDS011;45117;50.960;5.500;2023-03-19T07:52:23;14.38;;;9.93;;
59338;SDS011;45117;50.960;5.500;2023-03-19T07:54:49;14.13;;;9.90;;
59338;SDS011;45117;50.960;5.500;2023-03-19T07:57:16;18.13;;;11.85;;
59338;SDS011;45117;50.960;5.500;2023-03-19T07:59:43;14.80;;;10.05;;
59338;SDS011;45117;50.960;5.500;2023-03-19T08:02:10;16.20;;;10.48;;
59338;SDS011;45117;50.960;5.500;2023-03-19T08:04:38;11.65;;;8.32;;
59338;SDS011;45117;50.960;5.500;2023-03-19T08:07:05;12.32;;;8.45;;
59338;SDS011;45117;50.960;5.500;2023-03-19T08:09:36;11.50;;;8.40;;
59338;SDS011;45117;50.960;5.500;2023-03-19T08:12:03;12.18;;;7.75;;
59338;SDS011;45117;50.960;5.500;2023-03-19T08:14:30;10.55;;;7.75;;
59338;SDS011;45117;50.960;5.500;2023-03-19T08:16:57;11.90;;;7.85;;
59338;SDS011;45117;50.960;5.500;2023-03-19T08:19:23;9.48;;;7.10;;
59338;SDS011;45117;50.960;5.500;2023-03-19T08:21:50;10.02;;;7.28;;
59338;SDS011;45117;50.960;5.500;2023-03-19T08:24:16;9.77;;;6.72;;
59338;SDS011;45117;50.960;5.500;2023-03-19T08:26:45;10.82;;;6.90;;
59338;SDS011;45117;50.960;5.500;2023-03-19T08:29:12;9.70;;;6.47;;
59338;SDS011;45117;50.960;5.500;2023-03-19T08:31:38;9.30;;;6.85;;
59338;SDS011;45117;50.960;5.500;2023-03-19T08:34:05;9.35;;;6.70;;
59338;SDS011;45117;50.960;5.500;2023-03-19T08:36:34;10.10;;;7.13;;
59338;SDS011;45117;50.960;5.500;2023-03-19T08:39:01;9.43;;;6.80;;
59338;SDS011;45117;50.960;5.500;2023-03-19T08:41:28;7.78;;;6.25;;
59338;SDS011;45117;50.960;5.500;2023-03-19T08:43:56;8.30;;;5.95;;
59338;SDS011;45117;50.960;5.500;2023-03-19T08:46:23;7.88;;;5.97;;
59338;SDS011;45117;50.960;5.500;2023-03-19T08:48:50;8.40;;;6.30;;
59338;SDS011;45117;50.960;5.500;2023-03-19T08:51:17;8.52;;;5.70;;
59338;SDS011;45117;50.960;5.500;2023-03-19T08:53:44;8.55;;;6.60;;
59338;SDS011;45117;50.960;5.500;2023-03-19T08:56:10;9.52;;;6.28;;
59338;SDS011;45117;50.960;5.500;2023-03-19T08:58:37;8.65;;;6.47;;
59338;SDS011;45117;50.960;5.500;2023-03-19T09:01:05;8.02;;;5.78;;
59338;SDS011;45117;50.960;5.500;2023-03-19T09:03:34;7.82;;;5.28;;
59338;SDS011;45117;50.960;5.500;2023-03-19T09:06:02;9.32;;;5.68;;
59338;SDS011;45117;50.960;5.500;2023-03-19T09:08:30;6.22;;;4.78;;
59338;SDS011;45117;50.960;5.500;2023-03-19T09:10:57;5.68;;;4.90;;
59338;SDS011;45117;50.960;5.500;2023-03-19T09:13:24;7.65;;;4.20;;
59338;SDS011;45117;50.960;5.500;2023-03-19T09:15:50;6.65;;;4.68;;
59338;SDS011;45117;50.960;5.500;2023-03-19T09:18:19;6.18;;;4.45;;
59338;SDS011;45117;50.960;5.500;2023-03-19T09:20:48;7.55;;;4.45;;
59338;SDS011;45117;50.960;5.500;2023-03-19T09:23:14;6.93;;;5.07;;
59338;SDS011;45117;50.960;5.500;2023-03-19T09:25:41;8.35;;;5.10;;
59338;SDS011;45117;50.960;5.500;2023-03-19T09:28:07;6.75;;;4.50;;
59338;SDS011;45117;50.960;5.500;2023-03-19T09:30:34;8.27;;;5.10;;
59338;SDS011;45117;50.960;5.500;2023-03-19T09:33:02;7.75;;;5.00;;
59338;SDS011;45117;50.960;5.500;2023-03-19T09:35:30;8.10;;;4.80;;
59338;SDS011;45117;50.960;5.500;2023-03-19T09:37:56;7.53;;;5.10;;
59338;SDS011;45117;50.960;5.500;2023-03-19T09:40:24;6.80;;;4.63;;
59338;SDS011;45117;50.960;5.500;2023-03-19T09:42:55;7.43;;;5.25;;
59338;SDS011;45117;50.960;5.500;2023-03-19T09:45:31;8.70;;;4.82;;
59338;SDS011;45117;50.960;5.500;2023-03-19T09:47:59;8.18;;;5.30;;
59338;SDS011;45117;50.960;5.500;2023-03-19T09:50:32;6.78;;;4.75;;
59338;SDS011;45117;50.960;5.500;2023-03-19T09:53:00;8.32;;;5.43;;
59338;SDS011;45117;50.960;5.500;2023-03-19T09:55:34;9.95;;;5.53;;
59338;SDS011;45117;50.960;5.500;2023-03-19T09:58:09;9.32;;;5.65;;
59338;SDS011;45117;50.960;5.500;2023-03-19T10:00:39;8.07;;;5.07;;
59338;SDS011;45117;50.960;5.500;2023-03-19T10:03:10;8.30;;;5.18;;
59338;SDS011;45117;50.960;5.500;2023-03-19T10:05:53;8.27;;;5.80;;
59338;SDS011;45117;50.960;5.500;2023-03-19T10:08:48;9.77;;;6.10;;
59338;SDS011;45117;50.960;5.500;2023-03-19T10:11:30;8.52;;;5.85;;
59338;SDS011;45117;50.960;5.500;2023-03-19T10:14:14;8.48;;;5.15;;
59338;SDS011;45117;50.960;5.500;2023-03-19T10:16:55;8.40;;;6.05;;
59338;SDS011;45117;50.960;5.500;2023-03-19T10:19:27;9.30;;;6.22;;
59338;SDS011;45117;50.960;5.500;2023-03-19T10:22:04;8.65;;;6.15;;
59338;SDS011;45117;50.960;5.500;2023-03-19T10:24:38;11.63;;;6.93;;
59338;SDS011;45117;50.960;5.500;2023-03-19T10:27:08;10.85;;;6.90;;
59338;SDS011;45117;50.960;5.500;2023-03-19T10:29:37;9.35;;;6.47;;
59338;SDS011;45117;50.960;5.500;2023-03-19T10:32:06;11.88;;;7.60;;
59338;SDS011;45117;50.960;5.500;2023-03-19T10:34:42;12.20;;;7.68;;
59338;SDS011;45117;50.960;5.500;2023-03-19T10:37:15;12.13;;;8.00;;
59338;SDS011;45117;50.960;5.500;2023-03-19T10:39:44;12.07;;;7.43;;
59338;SDS011;45117;50.960;5.500;2023-03-19T10:42:18;12.43;;;7.97;;
59338;SDS011;45117;50.960;5.500;2023-03-19T10:45:01;10.23;;;6.75;;
59338;SDS011;45117;50.960;5.500;2023-03-19T10:47:31;12.68;;;8.07;;
59338;SDS011;45117;50.960;5.500;2023-03-19T10:50:02;14.63;;;7.70;;
59338;SDS011;45117;50.960;5.500;2023-03-19T10:52:32;11.57;;;7.38;;
59338;SDS011;45117;50.960;5.500;2023-03-19T10:55:01;10.10;;;5.88;;
59338;SDS011;45117;50.960;5.500;2023-03-19T10:57:30;12.63;;;6.53;;
59338;SDS011;45117;50.960;5.500;2023-03-19T11:00:01;8.02;;;5.20;;
59338;SDS011;45117;50.960;5.500;2023-03-19T11:02:30;8.60;;;5.10;;
59338;SDS011;45117;50.960;5.500;2023-03-19T11:05:08;14.02;;;7.10;;
59338;SDS011;45117;50.960;5.500;2023-03-19T11:07:49;10.13;;;6.10;;
59338;SDS011;45117;50.960;5.500;2023-03-19T11:10:20;10.30;;;5.72;;
59338;SDS011;45117;50.960;5.500;2023-03-19T11:12:51;11.57;;;7.00;;
59338;SDS011;45117;50.960;5.500;2023-03-19T11:15:21;10.50;;;6.35;;
59338;SDS011;45117;50.960;5.500;2023-03-19T11:17:55;8.73;;;5.90;;
59338;SDS011;45117;50.960;5.500;2023-03-19T11:20:26;9.55;;;6.30;;
59338;SDS011;45117;50.960;5.500;2023-03-19T11:22:56;11.27;;;5.90;;
59338;SDS011;45117;50.960;5.500;2023-03-19T11:25:27;9.02;;;5.95;;
59338;SDS011;45117;50.960;5.500;2023-03-19T11:27:58;6.97;;;4.82;;
59338;SDS011;45117;50.960;5.500;2023-03-19T11:33:53;10.63;;;5.05;;
59338;SDS011;45117;50.960;5.500;2023-03-19T11:36:28;6.97;;;4.05;;
59338;SDS011;45117;50.960;5.500;2023-03-19T11:39:05;7.35;;;4.20;;
59338;SDS011;45117;50.960;5.500;2023-03-19T11:44:54;7.72;;;4.68;;
59338;SDS011;45117;50.960;5.500;2023-03-19T11:47:27;7.43;;;3.65;;
59338;SDS011;45117;50.960;5.500;2023-03-19T11:50:01;7.18;;;3.72;;
59338;SDS011;45117;50.960;5.500;2023-03-19T11:52:45;6.35;;;3.22;;
59338;SDS011;45117;50.960;5.500;2023-03-19T11:55:24;7.68;;;3.15;;
59338;SDS011;45117;50.960;5.500;2023-03-19T11:58:00;5.95;;;2.92;;
59338;SDS011;45117;50.960;5.500;2023-03-19T12:00:52;7.05;;;2.72;;
59338;SDS011;45117;50.960;5.500;2023-03-19T12:03:25;5.63;;;2.80;;
59338;SDS011;45117;50.960;5.500;2023-03-19T12:06:06;9.65;;;3.35;;
59338;SDS011;45117;50.960;5.500;2023-03-19T12:08:46;7.43;;;2.70;;
59338;SDS011;45117;50.960;5.500;2023-03-19T12:11:18;4.57;;;2.25;;
59338;SDS011;45117;50.960;5.500;2023-03-19T12:13:54;6.20;;;2.35;;
59338;SDS011;45117;50.960;5.500;2023-03-19T12:16:30;4.03;;;2.20;;
59338;SDS011;45117;50.960;5.500;2023-03-19T12:19:16;6.15;;;2.63;;
59338;SDS011;45117;50.960;5.500;2023-03-19T12:21:55;5.30;;;2.40;;
59338;SDS011;45117;50.960;5.500;2023-03-19T12:24:31;4.63;;;2.70;;
59338;SDS011;45117;50.960;5.500;2023-03-19T12:27:08;10.05;;;3.00;;
59338;SDS011;45117;50.960;5.500;2023-03-19T12:29:47;7.78;;;3.30;;
59338;SDS011;45117;50.960;5.500;2023-03-19T12:32:26;6.40;;;3.10;;
59338;SDS011;45117;50.960;5.500;2023-03-19T12:35:02;6.30;;;3.20;;
59338;SDS011;45117;50.960;5.500;2023-03-19T12:37:34;8.25;;;3.00;;
59338;SDS011;45117;50.960;5.500;2023-03-19T12:40:10;9.00;;;3.63;;
59338;SDS011;45117;50.960;5.500;2023-03-19T12:42:46;7.22;;;3.10;;
59338;SDS011;45117;50.960;5.500;2023-03-19T12:45:18;7.10;;;2.85;;
59338;SDS011;45117;50.960;5.500;2023-03-19T12:47:53;6.30;;;2.90;;
59338;SDS011;45117;50.960;5.500;2023-03-19T12:50:25;7.22;;;2.58;;
59338;SDS011;45117;50.960;5.500;2023-03-19T12:52:53;6.32;;;2.55;;
59338;SDS011;45117;50.960;5.500;2023-03-19T12:55:25;5.10;;;2.35;;
59338;SDS011;45117;50.960;5.500;2023-03-19T12:58:02;6.07;;;2.38;;
59338;SDS011;45117;50.960;5.500;2023-03-19T13:00:32;5.47;;;2.20;;
59338;SDS011;45117;50.960;5.500;2023-03-19T13:03:02;6.78;;;2.40;;
59338;SDS011;45117;50.960;5.500;2023-03-19T13:05:37;5.25;;;2.38;;
59338;SDS011;45117;50.960;5.500;2023-03-19T13:08:09;3.30;;;1.88;;
59338;SDS011;45117;50.960;5.500;2023-03-19T13:10:41;2.60;;;1.70;;
59338;SDS011;45117;50.960;5.500;2023-03-19T13:13:13;5.70;;;2.10;;
59338;SDS011;45117;50.960;5.500;2023-03-19T13:15:50;7.45;;;1.90;;
59338;SDS011;45117;50.960;5.500;2023-03-19T13:18:21;4.80;;;1.70;;
59338;SDS011;45117;50.960;5.500;2023-03-19T13:20:56;7.20;;;2.42;;
59338;SDS011;45117;50.960;5.500;2023-03-19T13:23:35;5.38;;;2.03;;
59338;SDS011;45117;50.960;5.500;2023-03-19T13:26:04;5.97;;;2.10;;
59338;SDS011;45117;50.960;5.500;2023-03-19T13:28:36;7.40;;;2.38;;
59338;SDS011;45117;50.960;5.500;2023-03-19T13:31:05;6.57;;;2.33;;
59338;SDS011;45117;50.960;5.500;2023-03-19T13:33:32;5.95;;;1.90;;
59338;SDS011;45117;50.960;5.500;2023-03-19T13:36:01;5.13;;;2.15;;
59338;SDS011;45117;50.960;5.500;2023-03-19T13:38:33;5.90;;;1.88;;
59338;SDS011;45117;50.960;5.500;2023-03-19T13:41:04;6.85;;;1.70;;
59338;SDS011;45117;50.960;5.500;2023-03-19T13:43:54;3.40;;;1.80;;
59338;SDS011;45117;50.960;5.500;2023-03-19T13:49:30;8.70;;;1.85;;
59338;SDS011;45117;50.960;5.500;2023-03-19T13:55:27;4.97;;;2.15;;
59338;SDS011;45117;50.960;5.500;2023-03-19T13:58:04;3.72;;;2.03;;
59338;SDS011;45117;50.960;5.500;2023-03-19T14:00:56;6.63;;;2.33;;
59338;SDS011;45117;50.960;5.500;2023-03-19T14:03:25;5.88;;;2.00;;
59338;SDS011;45117;50.960;5.500;2023-03-19T14:05:54;4.60;;;2.42;;
59338;SDS011;45117;50.960;5.500;2023-03-19T14:08:22;3.88;;;1.90;;
59338;SDS011;45117;50.960;5.500;2023-03-19T14:10:51;9.10;;;2.67;;
59338;SDS011;45117;50.960;5.500;2023-03-19T14:13:20;6.72;;;2.25;;
59338;SDS011;45117;50.960;5.500;2023-03-19T14:15:53;4.40;;;1.73;;
59338;SDS011;45117;50.960;5.500;2023-03-19T14:18:27;4.80;;;2.33;;
59338;SDS011;45117;50.960;5.500;2023-03-19T14:20:56;6.47;;;2.13;;
59338;SDS011;45117;50.960;5.500;2023-03-19T14:23:26;4.72;;;2.40;;
59338;SDS011;45117;50.960;5.500;2023-03-19T14:26:04;6.07;;;2.13;;
59338;SDS011;45117;50.960;5.500;2023-03-19T14:31:29;7.05;;;2.17;;
59338;SDS011;45117;50.960;5.500;2023-03-19T14:34:02;11.60;;;5.75;;
59338;SDS011;45117;50.960;5.500;2023-03-19T14:36:34;6.18;;;2.78;;
59338;SDS011;45117;50.960;5.500;2023-03-19T14:39:02;9.80;;;2.55;;
59338;SDS011;45117;50.960;5.500;2023-03-19T14:41:38;5.47;;;2.17;;
59338;SDS011;45117;50.960;5.500;2023-03-19T14:47:27;7.05;;;2.10;;
59338;SDS011;45117;50.960;5.500;2023-03-19T14:53:03;6.43;;;2.10;;
59338;SDS011;45117;50.960;5.500;2023-03-19T14:55:38;6.93;;;2.28;;
59338;SDS011;45117;50.960;5.500;2023-03-19T14:58:08;14.07;;;6.43;;
59338;SDS011;45117;50.960;5.500;2023-03-19T15:00:42;8.82;;;2.42;;
59338;SDS011;45117;50.960;5.500;2023-03-19T15:03:18;19.08;;;8.02;;
59338;SDS011;45117;50.960;5.500;2023-03-19T15:05:48;8.50;;;2.50;;
59338;SDS011;45117;50.960;5.500;2023-03-19T15:08:18;10.27;;;2.70;;
59338;SDS011;45117;50.960;5.500;2023-03-19T15:10:50;7.03;;;1.98;;
59338;SDS011;45117;50.960;5.500;2023-03-19T15:13:32;6.00;;;2.17;;
59338;SDS011;45117;50.960;5.500;2023-03-19T15:19:05;9.45;;;2.45;;